createdAt,value
2023-11-30T00:00:56.129Z,547.00
2023-11-30T00:01:56.175Z,546.00
2023-11-30T00:02:56.256Z,545.00
2023-11-30T00:03:56.387Z,544.00
2023-11-30T00:04:56.281Z,544.00
2023-11-30T00:05:56.373Z,544.00
2023-11-30T00:06:56.375Z,543.00
2023-11-30T00:07:56.428Z,540.00
2023-11-30T00:08:56.499Z,540.00
2023-11-30T00:09:56.540Z,538.00
2023-11-30T00:10:56.614Z,539.00
2023-11-30T00:11:56.655Z,539.00
2023-11-30T00:12:56.667Z,540.00
2023-11-30T00:13:56.756Z,539.00
2023-11-30T00:14:56.819Z,543.00
2023-11-30T00:15:56.839Z,545.00
2023-11-30T00:16:57.011Z,543.00
2023-11-30T00:17:57.049Z,544.00
2023-11-30T00:18:57.074Z,540.00
2023-11-30T00:19:57.061Z,542.00
2023-11-30T00:20:57.129Z,544.00
2023-11-30T00:21:57.130Z,543.00
2023-11-30T00:22:57.170Z,544.00
2023-11-30T00:23:57.294Z,546.00
2023-11-30T00:24:57.311Z,545.00
2023-11-30T00:25:57.310Z,547.00
2023-11-30T00:26:58.272Z,546.00
2023-11-30T00:27:57.425Z,544.00
2023-11-30T00:28:57.491Z,542.00
2023-11-30T00:29:57.487Z,541.00
2023-11-30T00:30:57.577Z,539.00
2023-11-30T00:31:57.595Z,540.00
2023-11-30T00:32:57.702Z,540.00
2023-11-30T00:33:57.686Z,541.00
2023-11-30T00:34:57.704Z,542.00
2023-11-30T00:35:57.821Z,542.00
2023-11-30T00:36:58.260Z,543.00
2023-11-30T00:37:57.823Z,543.00
2023-11-30T00:38:57.881Z,543.00
2023-11-30T00:39:57.892Z,542.00
2023-11-30T00:40:57.957Z,541.00
2023-11-30T00:41:58.176Z,540.00
2023-11-30T00:42:58.058Z,541.00
2023-11-30T00:43:58.052Z,540.00
2023-11-30T00:44:58.142Z,537.00
2023-11-30T00:46:06.884Z,535.00
2023-11-30T00:46:59.104Z,536.00
2023-11-30T00:47:58.214Z,537.00
2023-11-30T00:48:58.115Z,537.00
2023-11-30T00:49:58.121Z,539.00
2023-11-30T00:50:58.133Z,537.00
2023-11-30T00:51:58.119Z,534.00
2023-11-30T00:52:58.114Z,534.00
2023-11-30T00:53:58.178Z,534.00
2023-11-30T00:54:58.134Z,533.00
2023-11-30T00:55:58.126Z,535.00
2023-11-30T00:56:58.157Z,533.00
2023-11-30T00:57:58.162Z,533.00
2023-11-30T00:58:58.137Z,533.00
2023-11-30T00:59:58.169Z,533.00
2023-11-30T01:00:58.186Z,534.00
2023-11-30T01:01:58.235Z,533.00
2023-11-30T01:02:58.189Z,531.00
2023-11-30T01:03:58.164Z,529.00
2023-11-30T01:04:58.121Z,527.00
2023-11-30T01:05:58.132Z,527.00
2023-11-30T01:06:58.175Z,528.00
2023-11-30T01:07:58.153Z,531.00
2023-11-30T01:08:58.188Z,530.00
2023-11-30T01:09:58.176Z,531.00
2023-11-30T01:10:58.137Z,534.00
2023-11-30T01:11:58.210Z,534.00
2023-11-30T01:12:58.186Z,532.00
2023-11-30T01:13:58.165Z,529.00
2023-11-30T01:14:58.223Z,528.00
2023-11-30T01:15:58.244Z,528.00
2023-11-30T01:16:58.272Z,529.00
2023-11-30T01:17:58.322Z,531.00
2023-11-30T01:18:58.348Z,530.00
2023-11-30T01:19:58.293Z,529.00
2023-11-30T01:20:58.347Z,528.00
2023-11-30T01:21:58.302Z,527.00
2023-11-30T01:22:58.346Z,526.00
2023-11-30T01:23:58.375Z,526.00
2023-11-30T01:24:58.378Z,527.00
2023-11-30T01:25:58.439Z,524.00
2023-11-30T01:26:58.492Z,523.00
2023-11-30T01:27:58.475Z,522.00
2023-11-30T01:28:58.498Z,523.00
2023-11-30T01:29:58.558Z,521.00
2023-11-30T01:30:58.637Z,520.00
2023-11-30T01:31:58.630Z,515.00
2023-11-30T01:32:58.704Z,515.00
2023-11-30T01:33:58.661Z,517.00
2023-11-30T01:34:58.675Z,515.00
2023-11-30T01:35:58.800Z,514.00
2023-11-30T01:36:58.783Z,513.00
2023-11-30T01:37:58.820Z,515.00
2023-11-30T01:38:58.876Z,516.00
2023-11-30T01:39:58.910Z,516.00
2023-11-30T01:40:58.961Z,517.00
2023-11-30T01:41:59.029Z,519.00
2023-11-30T01:42:59.079Z,519.00
2023-11-30T01:43:59.161Z,518.00
2023-11-30T01:44:59.224Z,517.00
2023-11-30T01:46:03.582Z,515.00
2023-11-30T01:47:00.246Z,515.00
2023-11-30T01:47:59.304Z,516.00
2023-11-30T01:48:59.326Z,518.00
2023-11-30T01:49:59.217Z,518.00
2023-11-30T01:50:59.301Z,519.00
2023-11-30T01:51:59.276Z,518.00
2023-11-30T01:52:59.273Z,518.00
2023-11-30T01:53:59.285Z,520.00
2023-11-30T01:54:59.219Z,523.00
2023-11-30T01:55:59.281Z,526.00
2023-11-30T01:56:59.261Z,526.00
2023-11-30T01:57:59.268Z,524.00
2023-11-30T01:58:59.274Z,522.00
2023-11-30T01:59:59.299Z,519.00
2023-11-30T02:00:59.227Z,519.00
2023-11-30T02:01:59.397Z,520.00
2023-11-30T02:02:59.350Z,521.00
2023-11-30T02:03:59.296Z,522.00
2023-11-30T02:04:59.169Z,522.00
2023-11-30T02:05:59.234Z,521.00
2023-11-30T02:06:59.270Z,520.00
2023-11-30T02:07:59.368Z,521.00
2023-11-30T02:08:59.343Z,521.00
2023-11-30T02:09:59.341Z,523.00
2023-11-30T02:10:59.416Z,522.00
2023-11-30T02:11:59.436Z,522.00
2023-11-30T02:12:59.501Z,520.00
2023-11-30T02:13:59.503Z,520.00
2023-11-30T02:14:59.564Z,519.00
2023-11-30T02:15:59.632Z,520.00
2023-11-30T02:16:59.658Z,519.00
2023-11-30T02:17:59.759Z,519.00
2023-11-30T02:18:59.731Z,517.00
2023-11-30T02:19:59.837Z,515.00
2023-11-30T02:20:59.868Z,514.00
2023-11-30T02:21:59.925Z,514.00
2023-11-30T02:23:00.021Z,512.00
2023-11-30T02:24:00.069Z,511.00
2023-11-30T02:25:00.180Z,510.00
2023-11-30T02:26:00.234Z,511.00
2023-11-30T02:27:00.318Z,511.00
2023-11-30T02:28:00.355Z,511.00
2023-11-30T02:29:00.416Z,511.00
2023-11-30T02:30:00.505Z,511.00
2023-11-30T02:31:00.509Z,510.00
2023-11-30T02:32:00.631Z,510.00
2023-11-30T02:33:00.732Z,508.00
2023-11-30T02:34:00.706Z,507.00
2023-11-30T02:35:00.772Z,506.00
2023-11-30T02:36:00.878Z,507.00
2023-11-30T02:37:00.907Z,509.00
2023-11-30T02:38:00.929Z,510.00
2023-11-30T02:39:01.067Z,511.00
2023-11-30T02:40:01.053Z,512.00
2023-11-30T02:41:01.047Z,513.00
2023-11-30T02:42:01.141Z,514.00
2023-11-30T02:43:01.125Z,512.00
2023-11-30T02:44:01.185Z,513.00
2023-11-30T02:45:01.259Z,515.00
2023-11-30T02:46:01.249Z,516.00
2023-11-30T02:47:01.264Z,518.00
2023-11-30T02:48:01.349Z,516.00
2023-11-30T02:49:01.324Z,519.00
2023-11-30T02:50:01.350Z,521.00
2023-11-30T02:51:01.408Z,525.00
2023-11-30T02:52:01.383Z,524.00
2023-11-30T02:53:01.412Z,524.00
2023-11-30T02:54:01.461Z,523.00
2023-11-30T02:55:01.495Z,523.00
2023-11-30T02:56:01.507Z,525.00
2023-11-30T02:57:01.549Z,525.00
2023-11-30T02:58:01.536Z,526.00
2023-11-30T02:59:01.529Z,527.00
2023-11-30T03:00:01.633Z,523.00
2023-11-30T03:01:01.588Z,524.00
2023-11-30T03:02:01.762Z,527.00
2023-11-30T03:03:01.644Z,528.00
2023-11-30T03:04:01.682Z,528.00
2023-11-30T03:05:01.629Z,528.00
2023-11-30T03:06:01.687Z,527.00
2023-11-30T03:07:01.699Z,528.00
2023-11-30T03:08:01.708Z,527.00
2023-11-30T03:09:01.726Z,528.00
2023-11-30T03:10:01.720Z,524.00
2023-11-30T03:11:01.723Z,524.00
2023-11-30T03:12:01.770Z,521.00
2023-11-30T03:13:01.731Z,522.00
2023-11-30T03:14:01.732Z,519.00
2023-11-30T03:15:01.792Z,517.00
2023-11-30T03:16:01.817Z,516.00
2023-11-30T03:17:01.791Z,516.00
2023-11-30T03:18:01.889Z,518.00
2023-11-30T03:19:13.904Z,520.00
2023-11-30T03:20:02.876Z,520.00
2023-11-30T03:21:01.859Z,522.00
2023-11-30T03:22:01.813Z,522.00
2023-11-30T03:23:01.789Z,524.00
2023-11-30T03:24:01.809Z,522.00
2023-11-30T03:25:01.796Z,520.00
2023-11-30T03:26:01.783Z,520.00
2023-11-30T03:27:01.836Z,519.00
2023-11-30T03:28:01.780Z,518.00
2023-11-30T03:29:01.817Z,516.00
2023-11-30T03:30:01.882Z,516.00
2023-11-30T03:31:01.805Z,516.00
2023-11-30T03:32:01.835Z,516.00
2023-11-30T03:33:01.906Z,516.00
2023-11-30T03:34:01.815Z,518.00
2023-11-30T03:35:01.858Z,518.00
2023-11-30T03:36:01.864Z,518.00
2023-11-30T03:37:01.929Z,516.00
2023-11-30T03:38:01.806Z,517.00
2023-11-30T03:39:01.838Z,517.00
2023-11-30T03:40:01.841Z,515.00
2023-11-30T03:41:01.827Z,513.00
2023-11-30T03:42:01.836Z,511.00
2023-11-30T03:43:01.814Z,511.00
2023-11-30T03:44:01.822Z,511.00
2023-11-30T03:45:01.863Z,512.00
2023-11-30T03:46:01.874Z,513.00
2023-11-30T03:47:01.850Z,514.00
2023-11-30T03:48:01.907Z,513.00
2023-11-30T03:49:01.820Z,510.00
2023-11-30T03:50:01.839Z,512.00
2023-11-30T03:51:01.891Z,513.00
2023-11-30T03:52:01.877Z,514.00
2023-11-30T03:53:01.929Z,514.00
2023-11-30T03:54:01.893Z,513.00
2023-11-30T03:55:01.840Z,512.00
2023-11-30T03:56:01.874Z,512.00
2023-11-30T03:57:01.881Z,513.00
2023-11-30T03:58:02.660Z,515.00
2023-11-30T03:59:01.840Z,518.00
2023-11-30T04:00:01.980Z,519.00
2023-11-30T04:01:01.872Z,520.00
2023-11-30T04:02:01.987Z,520.00
2023-11-30T04:03:01.941Z,521.00
2023-11-30T04:04:01.977Z,525.00
2023-11-30T04:05:01.913Z,526.00
2023-11-30T04:06:01.906Z,524.00
2023-11-30T04:07:01.929Z,523.00
2023-11-30T04:08:01.860Z,523.00
2023-11-30T04:09:01.914Z,524.00
2023-11-30T04:10:01.882Z,522.00
2023-11-30T04:11:01.881Z,522.00
2023-11-30T04:12:01.911Z,522.00
2023-11-30T04:13:01.897Z,523.00
2023-11-30T04:14:01.891Z,522.00
2023-11-30T04:15:01.905Z,520.00
2023-11-30T04:16:01.882Z,521.00
2023-11-30T04:17:04.516Z,521.00
2023-11-30T04:18:01.967Z,518.00
2023-11-30T04:19:01.930Z,520.00
2023-11-30T04:20:01.904Z,521.00
2023-11-30T04:21:01.916Z,519.00
2023-11-30T04:22:01.872Z,520.00
2023-11-30T04:23:01.886Z,522.00
2023-11-30T04:24:01.903Z,523.00
2023-11-30T04:25:01.895Z,523.00
2023-11-30T04:26:01.906Z,526.00
2023-11-30T04:27:01.925Z,527.00
2023-11-30T04:28:01.895Z,527.00
2023-11-30T04:29:01.898Z,527.00
2023-11-30T04:30:01.931Z,526.00
2023-11-30T04:31:01.994Z,527.00
2023-11-30T04:32:01.924Z,527.00
2023-11-30T04:33:02.020Z,528.00
2023-11-30T04:34:01.918Z,528.00
2023-11-30T04:35:01.942Z,529.00
2023-11-30T04:36:01.958Z,530.00
2023-11-30T04:37:01.936Z,530.00
2023-11-30T04:38:01.920Z,531.00
2023-11-30T04:39:01.922Z,531.00
2023-11-30T04:40:01.891Z,531.00
2023-11-30T04:41:01.953Z,531.00
2023-11-30T04:42:01.942Z,531.00
2023-11-30T04:43:01.920Z,531.00
2023-11-30T04:44:01.906Z,532.00
2023-11-30T04:45:09.236Z,537.00
2023-11-30T04:46:09.289Z,533.00
2023-11-30T04:47:09.193Z,531.00
2023-11-30T04:48:09.317Z,530.00
2023-11-30T04:49:09.194Z,530.00
2023-11-30T04:50:09.205Z,531.00
2023-11-30T04:51:09.318Z,532.00
2023-11-30T04:52:09.223Z,534.00
2023-11-30T04:53:09.220Z,532.00
2023-11-30T04:54:09.242Z,533.00
2023-11-30T04:55:09.220Z,532.00
2023-11-30T04:56:09.207Z,531.00
2023-11-30T04:57:09.266Z,531.00
2023-11-30T04:58:09.200Z,532.00
2023-11-30T04:59:09.206Z,533.00
2023-11-30T05:00:09.229Z,530.00
2023-11-30T05:01:09.225Z,533.00
2023-11-30T05:02:09.371Z,533.00
2023-11-30T05:03:09.419Z,535.00
2023-11-30T05:04:09.371Z,537.00
2023-11-30T05:05:09.283Z,538.00
2023-11-30T05:06:09.243Z,535.00
2023-11-30T05:07:09.233Z,534.00
2023-11-30T05:08:09.221Z,535.00
2023-11-30T05:09:09.251Z,534.00
2023-11-30T05:10:09.218Z,533.00
2023-11-30T05:11:09.248Z,537.00
2023-11-30T05:12:09.270Z,537.00
2023-11-30T05:13:09.243Z,536.00
2023-11-30T05:14:09.249Z,534.00
2023-11-30T05:15:09.299Z,533.00
2023-11-30T05:16:09.219Z,532.00
2023-11-30T05:17:09.226Z,531.00
2023-11-30T05:18:09.360Z,529.00
2023-11-30T05:19:09.240Z,531.00
2023-11-30T05:20:09.227Z,532.00
2023-11-30T05:21:09.317Z,534.00
2023-11-30T05:22:10.724Z,532.00
2023-11-30T05:23:09.238Z,532.00
2023-11-30T05:24:09.255Z,535.00
2023-11-30T05:25:09.217Z,536.00
2023-11-30T05:26:09.260Z,536.00
2023-11-30T05:27:09.310Z,535.00
2023-11-30T05:28:09.264Z,536.00
2023-11-30T05:29:09.320Z,536.00
2023-11-30T05:30:09.292Z,536.00
2023-11-30T05:31:09.262Z,537.00
2023-11-30T05:32:09.274Z,536.00
2023-11-30T05:33:09.323Z,534.00
2023-11-30T05:34:09.263Z,536.00
2023-11-30T05:35:09.260Z,537.00
2023-11-30T05:36:09.267Z,539.00
2023-11-30T05:37:09.250Z,537.00
2023-11-30T05:38:09.284Z,536.00
2023-11-30T05:39:09.318Z,535.00
2023-11-30T05:40:09.279Z,535.00
2023-11-30T05:41:09.259Z,536.00
2023-11-30T05:42:09.288Z,537.00
2023-11-30T05:43:09.264Z,538.00
2023-11-30T05:44:09.298Z,537.00
2023-11-30T05:45:09.321Z,537.00
2023-11-30T05:46:09.274Z,536.00
2023-11-30T05:47:09.254Z,536.00
2023-11-30T05:48:09.327Z,537.00
2023-11-30T05:49:09.360Z,541.00
2023-11-30T05:50:09.274Z,540.00
2023-11-30T05:51:09.392Z,540.00
2023-11-30T05:52:09.287Z,539.00
2023-11-30T05:53:09.297Z,538.00
2023-11-30T05:54:09.357Z,538.00
2023-11-30T05:55:09.261Z,540.00
2023-11-30T05:56:09.283Z,542.00
2023-11-30T05:57:09.312Z,543.00
2023-11-30T05:58:09.297Z,540.00
2023-11-30T05:59:09.300Z,538.00
2023-11-30T06:00:09.343Z,538.00
2023-11-30T06:01:31.813Z,538.00
2023-11-30T06:02:09.415Z,538.00
2023-11-30T06:03:09.462Z,541.00
2023-11-30T06:04:09.404Z,540.00
2023-11-30T06:05:09.449Z,541.00
2023-11-30T06:06:09.378Z,542.00
2023-11-30T06:07:09.336Z,541.00
2023-11-30T06:08:09.300Z,542.00
2023-11-30T06:09:09.389Z,542.00
2023-11-30T06:10:09.355Z,541.00
2023-11-30T06:11:09.326Z,542.00
2023-11-30T06:12:09.362Z,543.00
2023-11-30T06:13:09.364Z,543.00
2023-11-30T06:14:09.322Z,542.00
2023-11-30T06:15:09.460Z,542.00
2023-11-30T06:16:09.392Z,541.00
2023-11-30T06:17:09.411Z,545.00
2023-11-30T06:18:09.396Z,547.00
2023-11-30T06:19:09.368Z,548.00
2023-11-30T06:20:10.682Z,548.00
2023-11-30T06:21:09.351Z,549.00
2023-11-30T06:22:09.348Z,548.00
2023-11-30T06:23:09.363Z,550.00
2023-11-30T06:24:09.362Z,549.00
2023-11-30T06:25:09.417Z,549.00
2023-11-30T06:26:09.366Z,551.00
2023-11-30T06:27:09.386Z,548.00
2023-11-30T06:28:09.909Z,546.00
2023-11-30T06:29:09.360Z,543.00
2023-11-30T06:30:09.420Z,545.00
2023-11-30T06:31:09.385Z,546.00
2023-11-30T06:32:09.366Z,547.00
2023-11-30T06:33:09.474Z,547.00
2023-11-30T06:34:09.354Z,547.00
2023-11-30T06:35:09.374Z,551.00
2023-11-30T06:36:09.408Z,581.00
2023-11-30T06:37:09.351Z,596.00
2023-11-30T06:38:09.447Z,610.00
2023-11-30T06:39:09.353Z,635.00
2023-11-30T06:40:09.435Z,642.00
2023-11-30T06:41:09.436Z,769.00
2023-11-30T06:42:09.414Z,747.00
2023-11-30T06:43:09.361Z,766.00
2023-11-30T06:44:09.462Z,784.00
2023-11-30T06:45:09.410Z,785.00
2023-11-30T06:46:32.981Z,800.00
2023-11-30T06:47:09.619Z,822.00
2023-11-30T06:48:10.016Z,1072.00
2023-11-30T06:49:09.687Z,929.00
2023-11-30T06:50:09.680Z,916.00
2023-11-30T06:51:09.734Z,1016.00
2023-11-30T06:52:09.693Z,963.00
2023-11-30T06:53:09.921Z,929.00
2023-11-30T06:54:09.796Z,1078.00
2023-11-30T06:55:09.856Z,911.00
2023-11-30T06:56:09.883Z,915.00
2023-11-30T06:57:09.946Z,912.00
2023-11-30T06:58:10.415Z,1031.00
2023-11-30T06:59:10.133Z,1086.00
2023-11-30T07:00:10.228Z,992.00
2023-11-30T07:01:10.226Z,978.00
2023-11-30T07:02:10.297Z,1007.00
2023-11-30T07:03:10.480Z,1043.00
2023-11-30T07:04:10.571Z,1090.00
2023-11-30T07:05:10.497Z,1181.00
2023-11-30T07:06:10.674Z,1267.00
2023-11-30T07:07:17.268Z,1140.00
2023-11-30T07:08:11.620Z,1119.00
2023-11-30T07:09:10.620Z,1135.00
2023-11-30T07:10:10.566Z,1137.00
2023-11-30T07:11:12.428Z,1138.00
2023-11-30T07:12:11.235Z,1151.00
2023-11-30T07:13:10.621Z,1184.00
2023-11-30T07:14:10.576Z,1202.00
2023-11-30T07:15:10.596Z,1201.00
2023-11-30T07:16:10.583Z,1212.00
2023-11-30T07:17:10.588Z,1231.00
2023-11-30T07:18:10.756Z,1244.00
2023-11-30T07:19:10.626Z,1327.00
2023-11-30T07:20:10.570Z,1425.00
2023-11-30T07:21:10.631Z,1304.00
2023-11-30T07:22:10.578Z,1326.00
2023-11-30T07:23:10.567Z,1345.00
2023-11-30T07:24:13.132Z,1533.00
2023-11-30T07:25:10.584Z,1451.00
2023-11-30T07:26:10.594Z,1441.00
2023-11-30T07:27:10.864Z,1445.00
2023-11-30T07:28:11.466Z,1479.00
2023-11-30T07:29:10.585Z,1492.00
2023-11-30T07:30:10.743Z,1490.00
2023-11-30T07:31:10.622Z,1488.00
2023-11-30T07:32:10.607Z,1535.00
2023-11-30T07:33:10.674Z,1523.00
2023-11-30T07:34:10.606Z,1527.00
2023-11-30T07:35:10.605Z,1545.00
2023-11-30T07:36:12.640Z,1561.00
2023-11-30T07:37:10.603Z,1568.00
2023-11-30T07:38:10.686Z,1531.00
2023-11-30T07:39:10.600Z,1520.00
2023-11-30T07:40:12.401Z,1400.00
2023-11-30T07:41:10.599Z,1415.00
2023-11-30T07:42:10.606Z,1336.00
2023-11-30T07:43:10.621Z,1305.00
2023-11-30T07:44:10.592Z,1317.00
2023-11-30T07:45:10.764Z,1345.00
2023-11-30T07:46:10.616Z,1339.00
2023-11-30T07:47:11.701Z,1343.00
2023-11-30T07:48:10.779Z,1452.00
2023-11-30T07:49:10.599Z,1443.00
2023-11-30T07:50:10.602Z,1442.00
2023-11-30T07:51:10.648Z,1430.00
2023-11-30T07:52:10.601Z,1431.00
2023-11-30T07:53:10.600Z,1444.00
2023-11-30T07:54:10.659Z,1434.00
2023-11-30T07:55:10.603Z,1459.00
2023-11-30T07:56:10.590Z,1538.00
2023-11-30T07:57:10.614Z,1561.00
2023-11-30T07:58:10.603Z,1566.00
2023-11-30T07:59:10.602Z,1563.00
2023-11-30T08:00:10.694Z,1562.00
2023-11-30T08:01:10.757Z,1542.00
2023-11-30T08:02:10.643Z,1544.00
2023-11-30T08:03:10.730Z,1555.00
2023-11-30T08:04:10.852Z,1661.00
2023-11-30T08:05:10.645Z,1685.00
2023-11-30T08:06:10.635Z,1709.00
2023-11-30T08:07:10.619Z,1710.00
2023-11-30T08:08:10.626Z,1619.00
2023-11-30T08:09:10.837Z,1623.00
2023-11-30T08:10:10.647Z,1463.00
2023-11-30T08:11:10.645Z,1490.00
2023-11-30T08:12:10.768Z,1506.00
2023-11-30T08:13:10.610Z,1442.00
2023-11-30T08:14:10.970Z,1431.00
2023-11-30T08:15:10.731Z,1431.00
2023-11-30T08:16:10.619Z,1373.00
2023-11-30T08:17:10.626Z,1376.00
2023-11-30T08:18:10.650Z,1388.00
2023-11-30T08:19:10.696Z,1378.00
2023-11-30T08:20:10.658Z,1368.00
2023-11-30T08:21:10.608Z,1370.00
2023-11-30T08:22:12.369Z,1370.00
2023-11-30T08:23:10.621Z,1361.00
2023-11-30T08:24:10.626Z,1354.00
2023-11-30T08:25:10.615Z,1350.00
2023-11-30T08:26:10.626Z,1347.00
2023-11-30T08:27:10.690Z,1354.00
2023-11-30T08:28:10.601Z,1360.00
2023-11-30T08:29:10.609Z,1371.00
2023-11-30T08:30:10.625Z,1379.00
2023-11-30T08:31:10.665Z,1387.00
2023-11-30T08:32:10.635Z,1395.00
2023-11-30T08:33:10.690Z,1455.00
2023-11-30T08:34:11.027Z,1455.00
2023-11-30T08:35:10.652Z,1526.00
2023-11-30T08:36:10.653Z,1502.00
2023-11-30T08:37:10.629Z,1489.00
2023-11-30T08:38:10.621Z,1517.00
2023-11-30T08:39:10.638Z,1526.00
2023-11-30T08:40:10.619Z,1520.00
2023-11-30T08:41:10.625Z,1510.00
2023-11-30T08:42:10.700Z,1523.00
2023-11-30T08:43:10.640Z,1599.00
2023-11-30T08:44:10.628Z,1487.00
2023-11-30T08:45:10.715Z,1475.00
2023-11-30T08:46:10.648Z,1484.00
2023-11-30T08:47:10.622Z,1478.00
2023-11-30T08:48:10.718Z,1480.00
2023-11-30T08:49:10.650Z,1492.00
2023-11-30T08:50:10.647Z,1501.00
2023-11-30T08:51:10.648Z,1498.00
2023-11-30T08:52:10.668Z,1499.00
2023-11-30T08:53:10.643Z,1500.00
2023-11-30T08:54:10.696Z,1502.00
2023-11-30T08:55:10.646Z,1511.00
2023-11-30T08:56:10.653Z,1556.00
2023-11-30T08:57:10.653Z,1547.00
2023-11-30T08:58:10.646Z,1604.00
2023-11-30T08:59:10.700Z,1573.00
2023-11-30T09:00:10.758Z,1560.00
2023-11-30T09:01:10.672Z,1551.00
2023-11-30T09:02:10.690Z,1541.00
2023-11-30T09:03:10.754Z,1538.00
2023-11-30T09:04:11.033Z,1534.00
2023-11-30T09:05:10.676Z,1537.00
2023-11-30T09:06:10.686Z,1543.00
2023-11-30T09:07:10.697Z,1544.00
2023-11-30T09:08:10.665Z,1542.00
2023-11-30T09:09:10.759Z,1538.00
2023-11-30T09:10:10.663Z,1540.00
2023-11-30T09:11:10.647Z,1540.00
2023-11-30T09:12:10.654Z,1536.00
2023-11-30T09:13:10.648Z,1544.00
2023-11-30T09:14:10.688Z,1549.00
2023-11-30T09:15:10.717Z,1555.00
2023-11-30T09:16:10.720Z,1561.00
2023-11-30T09:17:10.654Z,1564.00
2023-11-30T09:18:10.733Z,1567.00
2023-11-30T09:19:10.664Z,1565.00
2023-11-30T09:20:10.655Z,1573.00
2023-11-30T09:21:10.694Z,1581.00
2023-11-30T09:22:10.668Z,1587.00
2023-11-30T09:23:10.664Z,1591.00
2023-11-30T09:24:10.998Z,1592.00
2023-11-30T09:25:10.667Z,1593.00
2023-11-30T09:26:10.692Z,1592.00
2023-11-30T09:27:11.471Z,1544.00
2023-11-30T09:28:10.835Z,1514.00
2023-11-30T09:29:10.673Z,1507.00
2023-11-30T09:30:10.671Z,1509.00
2023-11-30T09:31:10.671Z,1513.00
2023-11-30T09:32:10.667Z,1517.00
2023-11-30T09:33:10.768Z,1552.00
2023-11-30T09:34:11.065Z,1555.00
2023-11-30T09:35:10.745Z,1475.00
2023-11-30T09:36:10.731Z,1465.00
2023-11-30T09:37:10.655Z,1460.00
2023-11-30T09:38:10.662Z,1445.00
2023-11-30T09:39:11.005Z,1360.00
2023-11-30T09:40:10.682Z,1353.00
2023-11-30T09:41:10.632Z,1359.00
2023-11-30T09:42:10.716Z,1361.00
2023-11-30T09:43:10.654Z,1366.00
2023-11-30T09:44:10.705Z,1370.00
2023-11-30T09:45:11.513Z,1369.00
2023-11-30T09:46:10.824Z,1369.00
2023-11-30T09:47:10.692Z,1369.00
2023-11-30T09:48:10.744Z,1365.00
2023-11-30T09:49:10.678Z,1356.00
2023-11-30T09:50:10.978Z,1349.00
2023-11-30T09:51:10.741Z,1344.00
2023-11-30T09:52:10.719Z,1364.00
2023-11-30T09:53:10.668Z,1365.00
2023-11-30T09:54:10.761Z,1447.00
2023-11-30T09:55:12.669Z,1336.00
2023-11-30T09:56:10.680Z,1328.00
2023-11-30T09:57:10.731Z,1342.00
2023-11-30T09:58:10.718Z,1149.00
2023-11-30T09:59:10.667Z,1099.00
2023-11-30T10:00:11.278Z,998.00
2023-11-30T10:01:10.768Z,964.00
2023-11-30T10:02:10.833Z,953.00
2023-11-30T10:03:10.742Z,935.00
2023-11-30T10:04:10.758Z,1031.00
2023-11-30T10:05:10.977Z,1125.00
2023-11-30T10:06:10.697Z,1129.00
2023-11-30T10:07:10.749Z,1134.00
2023-11-30T10:08:10.708Z,1143.00
2023-11-30T10:09:10.668Z,1157.00
2023-11-30T10:10:10.695Z,1172.00
2023-11-30T10:11:10.701Z,1169.00
2023-11-30T10:12:10.732Z,1169.00
2023-11-30T10:13:10.679Z,1170.00
2023-11-30T10:14:10.770Z,1158.00
2023-11-30T10:15:10.769Z,1157.00
2023-11-30T10:16:10.695Z,1160.00
2023-11-30T10:17:10.730Z,1166.00
2023-11-30T10:18:10.790Z,1175.00
2023-11-30T10:19:10.825Z,1198.00
2023-11-30T10:20:10.989Z,1222.00
2023-11-30T10:21:10.780Z,1230.00
2023-11-30T10:22:10.681Z,1229.00
2023-11-30T10:23:10.694Z,1229.00
2023-11-30T10:24:10.732Z,1226.00
2023-11-30T10:25:11.033Z,1229.00
2023-11-30T10:26:10.711Z,1234.00
2023-11-30T10:27:10.746Z,1243.00
2023-11-30T10:28:10.708Z,1252.00
2023-11-30T10:29:10.726Z,1249.00
2023-11-30T10:30:10.759Z,1244.00
2023-11-30T10:31:10.757Z,1247.00
2023-11-30T10:32:10.706Z,1247.00
2023-11-30T10:33:10.785Z,1247.00
2023-11-30T10:34:10.851Z,1248.00
2023-11-30T10:35:10.753Z,1253.00
2023-11-30T10:36:10.775Z,1264.00
2023-11-30T10:37:10.672Z,1270.00
2023-11-30T10:38:10.697Z,1277.00
2023-11-30T10:39:10.743Z,1273.00
2023-11-30T10:40:10.729Z,1269.00
2023-11-30T10:41:10.728Z,1265.00
2023-11-30T10:42:10.762Z,1266.00
2023-11-30T10:43:10.714Z,1268.00
2023-11-30T10:44:10.731Z,1271.00
2023-11-30T10:45:10.769Z,1278.00
2023-11-30T10:46:10.749Z,1279.00
2023-11-30T10:47:10.669Z,1293.00
2023-11-30T10:48:10.752Z,1337.00
2023-11-30T10:49:10.682Z,1335.00
2023-11-30T10:50:10.979Z,1333.00
2023-11-30T10:51:10.706Z,1339.00
2023-11-30T10:52:10.713Z,1353.00
2023-11-30T10:53:10.673Z,1376.00
2023-11-30T10:54:10.763Z,1404.00
2023-11-30T10:55:11.038Z,1465.00
2023-11-30T10:56:10.862Z,1479.00
2023-11-30T10:57:10.982Z,1502.00
2023-11-30T10:58:10.976Z,1515.00
2023-11-30T10:59:11.063Z,1582.00
2023-11-30T11:00:11.152Z,1581.00
2023-11-30T11:01:11.226Z,1800.00
2023-11-30T11:02:11.411Z,1724.00
2023-11-30T11:03:11.446Z,1688.00
2023-11-30T11:04:11.503Z,1708.00
2023-11-30T11:05:11.504Z,1750.00
2023-11-30T11:06:11.572Z,1759.00
2023-11-30T11:07:11.624Z,1773.00
2023-11-30T11:08:11.667Z,1815.00
2023-11-30T11:09:11.776Z,1818.00
2023-11-30T11:10:11.989Z,1842.00
2023-11-30T11:11:11.850Z,1937.00
2023-11-30T11:12:11.955Z,1948.00
2023-11-30T11:13:11.928Z,1945.00
2023-11-30T11:14:11.938Z,1971.00
2023-11-30T11:15:15.806Z,1981.00
2023-11-30T11:16:12.149Z,2034.00
2023-11-30T11:17:11.957Z,2032.00
2023-11-30T11:18:12.081Z,2036.00
2023-11-30T11:19:12.002Z,2048.00
2023-11-30T11:20:11.987Z,2067.00
2023-11-30T11:21:12.045Z,2097.00
2023-11-30T11:22:12.001Z,2100.00
2023-11-30T11:23:11.979Z,2102.00
2023-11-30T11:24:12.061Z,2044.00
2023-11-30T11:25:12.021Z,2070.00
2023-11-30T11:26:12.041Z,2070.00
2023-11-30T11:27:12.063Z,2052.00
2023-11-30T11:28:12.160Z,2050.00
2023-11-30T11:29:12.225Z,2057.00
2023-11-30T11:30:12.309Z,1858.00
2023-11-30T11:31:13.303Z,1880.00
2023-11-30T11:32:12.291Z,1870.00
2023-11-30T11:33:12.410Z,1870.00
2023-11-30T11:34:12.315Z,1873.00
2023-11-30T11:35:12.519Z,1880.00
2023-11-30T11:36:13.430Z,1864.00
2023-11-30T11:37:12.584Z,1874.00
2023-11-30T11:38:12.292Z,1685.00
2023-11-30T11:39:12.257Z,1677.00
2023-11-30T11:40:12.514Z,1674.00
2023-11-30T11:41:12.378Z,1347.00
2023-11-30T11:42:12.413Z,1349.00
2023-11-30T11:43:12.418Z,1375.00
2023-11-30T11:44:12.458Z,1355.00
2023-11-30T11:45:12.599Z,1448.00
2023-11-30T11:46:12.541Z,1541.00
2023-11-30T11:47:12.449Z,1557.00
2023-11-30T11:48:12.590Z,1573.00
2023-11-30T11:49:12.515Z,1602.00
2023-11-30T11:50:12.534Z,1602.00
2023-11-30T11:51:12.554Z,1607.00
2023-11-30T11:52:12.502Z,1613.00
2023-11-30T11:53:12.482Z,1621.00
2023-11-30T11:54:12.557Z,1623.00
2023-11-30T11:55:12.592Z,1634.00
2023-11-30T11:56:12.653Z,1646.00
2023-11-30T11:57:12.678Z,1658.00
2023-11-30T11:58:12.732Z,1667.00
2023-11-30T11:59:12.809Z,1685.00
2023-11-30T12:00:12.936Z,1700.00
2023-11-30T12:01:12.977Z,1726.00
2023-11-30T12:02:13.013Z,1746.00
2023-11-30T12:03:13.097Z,1757.00
2023-11-30T12:04:13.203Z,1770.00
2023-11-30T12:05:13.215Z,1780.00
2023-11-30T12:06:13.336Z,1792.00
2023-11-30T12:07:13.333Z,1803.00
2023-11-30T12:08:14.025Z,1818.00
2023-11-30T12:09:14.316Z,1818.00
2023-11-30T12:10:13.564Z,1820.00
2023-11-30T12:11:13.596Z,1824.00
2023-11-30T12:12:13.728Z,1841.00
2023-11-30T12:13:13.839Z,1870.00
2023-11-30T12:14:13.855Z,1887.00
2023-11-30T12:15:13.910Z,1901.00
2023-11-30T12:16:14.062Z,1770.00
2023-11-30T12:17:14.129Z,1788.00
2023-11-30T12:18:14.246Z,1407.00
2023-11-30T12:19:15.099Z,1254.00